Lake Shore, Maryland
Current Conditions -  °F | °C
As of 2:54 PM on Saturday 25 Oct 2014 (Local Time) from KNAK Reporting Station
Clear Clear  
Wind Chill: 70°   Ceiling: Unl
Heat Index: 70°   Visibility: 10mi
Dew Point: 42°   Wind: 9mph
Humidity: 36%   Direction: 250°WSW
Pressure: 29.8"   Gusts: NA
Location:  39.11°N, 76.49°W
Report Text: KNAK 251854Z AUTO 25008KT 210V280 10SM CLR 21/06 A2980 RMK AO2 SLP093 T02110056
Loading
Personal Weather Stations






























Interactive Weather Map
Tropical Storm Tracking
New forecast layout! Learn more

10-Day Weather Forecast

Advertisements
Track Severe Weather on mobile